Rocky Mount Wilson Regional Airport
KRWI : now visible

Aeroporto :











RITROVATECI SU...

 
LOGIN :

Iscrizione | Disclaimer

   EN    FR    IT 

 









Sommario :    VFR   VFR Marginale   IFR   IFR Intensivo   IFR Molto Intensivo
Visibilità : 
Base nubi : 
>= 8 km
>= 3000ft
5 / 8 km
1000 / 3000 ft
1500m / 5 km
500 / 1000 ft
800 / 1500m
200 / 500 ft
< 800m
< 200 ft
Simboli :   Temporali  Nebbia  Neve Forte  Precipitazioni Forti  Vento > 20 kt







- Altitudine del aeroporto : 159 ft
- Codice IATA : RWI


KRWI - Rocky Mount Wilson Regional

ULTIMO METAR :
  • 190153Z AUTO 05003KT 10SM CLR 17/13 A3020 RMK AO2 SLP225 T01720133

METARs OBSOLETI :
  • 190053Z AUTO 06005KT 10SM CLR 18/13 A3018 RMK AO2 SLP220 T01830133
  • 182353Z AUTO 06005KT 10SM CLR 19/13 A3017 RMK AO2 SLP216 T01940133 10261 20189 53013
  • 182253Z AUTO 05004KT 10SM CLR 22/12 A3015 RMK AO2 SLP208 T02170117

TAF KRWI
Valido dal 19 a 00 ore il 20 a 00 ore UTC


182320Z 1900/1924 VRB03KT P6SM FEW110
FM191300 02007G12KT P6SM FEW200
FM192300 VRB04KT P6SM FEW200
Nessun NOTAM noto per questo aeroporto.



MetMap, La meteo Aeronautica in un colpo d'occhio ! - Copyright ORBIFLY Dicembre 2007 - Disclaimer

ORBIFLY MET'MAP TEAM :

Programmazione e sviluppo : Alexandra Zaïnal
Concezione e sviluppo : Baudouin d'Aumeries
Co-Programmazione e sviluppo : Marc-Olivier Méhu
Supporto tecnico e logistico : Manuel Goepfert
Aiuto per la traduzione : Arnaldo La Scala

Contatto : metmap@orbifly.com




FONTI E CREDITI :

   NOAA       Earth
Advisory